Time;durP1;ratioP1;P1;durP2;ratioP2;P2;SDS_P1;SDS_P2;PMS_P1;PMS_P2;Temp;Humidity;BMP_temperature;BMP_pressure;BME280_temperature;BME280_humidity;BME280_pressure;Samples;Min_cycle;Max_cycle;Signal;HPM_P1;HPM_P2
2021/08/03 00:00:52;;;;;;;3.28;2.90;;;13.60;99.90;;;14.53;90.01;97899.94;5241399;28;20240;-60
2021/08/03 00:03:30;;;;;;;3.05;2.78;;;13.60;99.90;;;14.43;90.22;97905.50;5239273;28;20220;-60
2021/08/03 00:06:09;;;;;;;3.40;2.60;;;13.60;99.90;;;14.37;90.92;97900.97;5247326;28;20189;-60
2021/08/03 00:08:46;;;;;;;2.78;2.58;;;13.60;99.90;;;14.37;90.83;97900.97;5247040;28;20200;-60
2021/08/03 00:11:21;;;;;;;3.22;3.03;;;13.50;99.90;;;14.31;90.96;97895.56;5246364;28;20222;-60
2021/08/03 00:13:55;;;;;;;3.83;2.70;;;13.50;99.90;;;14.23;90.70;97896.94;5247256;28;20196;-60
2021/08/03 00:16:30;;;;;;;2.90;2.70;;;13.40;99.90;;;14.28;91.82;97894.53;5246325;28;20682;-59
2021/08/03 00:19:03;;;;;;;3.13;2.90;;;13.50;99.90;;;14.30;91.74;97896.38;5243565;28;20571;-59
2021/08/03 00:21:37;;;;;;;3.22;2.92;;;13.50;99.90;;;14.31;92.13;97889.56;5246048;28;20223;-60
2021/08/03 00:24:10;;;;;;;3.13;2.83;;;13.50;99.90;;;14.30;92.25;97883.50;5247593;28;20227;-59
2021/08/03 00:26:45;;;;;;;3.22;2.90;;;13.50;99.90;;;14.26;92.36;97884.22;5246821;28;20223;-59
2021/08/03 00:29:18;;;;;;;3.00;2.67;;;13.50;99.90;;;14.27;92.73;97887.66;5246394;28;20206;-60
2021/08/03 00:31:51;;;;;;;3.47;3.17;;;13.50;99.90;;;14.31;91.59;97885.28;5246726;28;20319;-58
2021/08/03 00:34:25;;;;;;;3.10;2.90;;;13.50;99.90;;;14.32;92.04;97889.59;5246678;28;20283;-60
2021/08/03 00:36:58;;;;;;;3.35;3.05;;;13.50;99.90;;;14.30;91.57;97888.66;5246798;28;20631;-59
2021/08/03 00:39:31;;;;;;;3.33;2.88;;;13.40;99.90;;;14.25;91.42;97887.59;5238066;28;20199;-60
2021/08/03 00:42:07;;;;;;;2.92;2.72;;;13.40;99.90;;;14.23;91.82;97890.91;5245878;28;20197;-59
2021/08/03 00:44:43;;;;;;;3.00;2.80;;;13.40;99.90;;;14.24;92.82;97882.38;5246500;28;20227;-59
2021/08/03 00:47:20;;;;;;;2.80;2.60;;;13.50;99.90;;;14.26;92.86;97879.06;5246163;28;20192;-60
2021/08/03 00:49:53;;;;;;;2.80;2.60;;;13.50;99.90;;;14.24;91.96;97879.81;5246047;28;20691;-59
2021/08/03 00:52:28;;;;;;;3.03;2.78;;;13.50;99.90;;;14.29;91.62;97876.63;5246734;28;20204;-59
2021/08/03 00:55:01;;;;;;;4.70;2.95;;;13.50;99.90;;;14.30;92.65;97873.22;5245992;28;20203;-58
2021/08/03 00:57:36;;;;;;;3.45;3.15;;;13.50;99.90;;;14.25;93.64;97876.41;5246189;28;20200;-59
2021/08/03 01:00:11;;;;;;;3.00;2.70;;;13.50;99.90;;;14.24;92.38;97866.97;5246184;28;20687;-56
2021/08/03 01:02:44;;;;;;;2.97;2.78;;;13.50;99.90;;;14.25;92.53;97868.69;5244240;28;20203;-60
2021/08/03 01:05:18;;;;;;;2.83;2.72;;;13.40;99.90;;;14.15;91.68;97867.44;5245828;28;20215;-60
2021/08/03 01:08:06;;;;;;;3.30;3.10;;;13.40;99.90;;;14.09;91.15;97868.06;5245353;28;20203;-60
2021/08/03 01:10:52;;;;;;;3.10;2.90;;;13.30;99.90;;;14.11;92.00;97875.84;5246282;28;20220;-60
2021/08/03 01:13:36;;;;;;;3.25;3.00;;;13.30;99.90;;;14.15;92.97;97868.31;5246462;28;20196;-60
2021/08/03 01:16:21;;;;;;;2.92;2.72;;;13.40;99.90;;;14.16;92.87;97870.09;5245967;28;20196;-59
2021/08/03 01:19:05;;;;;;;3.13;2.83;;;13.50;99.90;;;14.13;92.79;97869.06;5245814;28;20200;-60
2021/08/03 01:21:48;;;;;;;3.45;3.15;;;13.40;99.90;;;14.12;92.94;97869.88;5245039;28;20224;-60
2021/08/03 01:25:00;;;;;;;3.22;2.90;;;13.40;99.90;;;14.14;92.04;97868.25;5245298;28;20223;-60
2021/08/03 01:28:11;;;;;;;3.50;3.10;;;13.30;99.90;;;14.14;92.74;97860.56;5245366;28;20204;-60
2021/08/03 01:30:54;;;;;;;3.65;3.45;;;13.40;99.90;;;14.12;92.68;97862.16;5246321;28;20303;-59
2021/08/03 01:33:30;;;;;;;2.83;2.55;;;13.30;99.90;;;14.14;93.11;97866.56;5245900;28;20200;-60
2021/08/03 01:36:04;;;;;;;2.80;2.60;;;13.40;99.90;;;14.12;92.77;97863.03;5245886;28;20200;-60
2021/08/03 01:38:42;;;;;;;3.30;3.00;;;13.30;99.90;;;14.15;92.36;97868.31;5246063;28;20197;-60
2021/08/03 01:41:18;;;;;;;3.15;2.95;;;13.40;99.90;;;14.17;92.27;97861.56;5246093;28;20216;-60
2021/08/03 01:43:54;;;;;;;3.33;3.13;;;13.40;99.90;;;14.17;92.86;97856.41;5238514;28;20581;-59
2021/08/03 01:46:28;;;;;;;4.05;3.15;;;13.40;99.90;;;14.20;93.01;97860.81;5245865;28;20199;-60
2021/08/03 01:49:03;;;;;;;3.67;3.38;;;13.50;99.90;;;14.19;93.15;97862.50;5245353;28;20688;-59
2021/08/03 01:51:36;;;;;;;3.47;3.03;;;13.40;99.90;;;14.13;92.63;97869.94;5245633;28;20215;-59
2021/08/03 01:54:11;;;;;;;3.03;2.80;;;13.40;99.90;;;14.09;92.52;97867.19;5246371;28;20216;-60
2021/08/03 01:56:46;;;;;;;3.03;2.83;;;13.30;99.90;;;14.04;92.25;97863.53;5245259;28;20567;-59
2021/08/03 01:59:22;;;;;;;3.40;3.10;;;13.20;99.90;;;13.92;91.48;97856.16;5245562;28;20198;-59
2021/08/03 02:01:55;;;;;;;3.00;2.80;;;13.20;99.90;;;13.85;92.23;97867.88;5230124;28;20595;-55
2021/08/03 02:04:29;;;;;;;3.85;3.13;;;13.10;99.90;;;13.82;92.38;97857.47;5245304;28;20212;-54
2021/08/03 02:07:03;;;;;;;3.65;3.35;;;13.10;99.90;;;13.83;92.97;97854.06;5244819;28;20193;-55
2021/08/03 02:09:37;;;;;;;2.95;2.80;;;13.10;99.90;;;13.89;92.97;97867.19;5245279;28;20193;-55
2021/08/03 02:12:10;;;;;;;3.25;2.95;;;13.10;99.90;;;13.93;92.76;97856.22;5244109;28;20200;-56
2021/08/03 02:14:46;;;;;;;3.47;3.17;;;13.20;99.90;;;13.93;93.46;97850.19;5243905;28;20653;-56
2021/08/03 02:17:21;;;;;;;3.25;3.05;;;13.20;99.90;;;13.91;93.55;97862.13;5245509;28;20192;-57
2021/08/03 02:19:55;;;;;;;3.88;2.70;;;13.10;99.90;;;13.92;92.24;97859.59;5244175;28;20581;-52
2021/08/03 02:22:28;;;;;;;3.40;3.10;;;13.10;99.90;;;13.91;92.73;97857.00;5245978;28;20193;-53
2021/08/03 02:25:01;;;;;;;3.20;2.90;;;13.10;99.90;;;13.89;93.29;97856.91;5243638;28;20224;-54
2021/08/03 02:27:34;;;;;;;3.10;2.90;;;13.10;99.90;;;13.88;93.10;97847.44;5240735;28;20200;-56
2021/08/03 02:30:11;;;;;;;3.40;3.10;;;13.20;99.90;;;13.89;93.61;97853.47;5240886;28;20216;-54
2021/08/03 02:32:51;;;;;;;3.08;2.70;;;13.20;99.90;;;13.89;94.27;97854.34;5246080;28;20199;-56
2021/08/03 02:35:29;;;;;;;4.05;3.00;;;13.20;99.90;;;13.87;93.68;97845.66;5249353;28;20285;-52
2021/08/03 02:38:08;;;;;;;2.80;2.60;;;13.10;99.90;;;13.77;92.56;97848.66;5248730;28;20541;-52
2021/08/03 02:40:44;;;;;;;2.65;2.47;;;13.00;99.90;;;13.76;93.54;97854.59;5248143;28;20224;-56
2021/08/03 02:43:24;;;;;;;2.88;2.45;;;13.00;99.90;;;13.75;92.84;97851.16;5249405;28;20195;-54
2021/08/03 02:46:01;;;;;;;3.03;2.83;;;13.00;99.90;;;13.71;92.32;97844.13;5248610;28;20232;-52
2021/08/03 02:48:35;;;;;;;3.67;3.05;;;12.90;99.90;;;13.72;93.40;97842.44;5248483;28;20733;-54
2021/08/03 02:51:10;;;;;;;2.80;2.63;;;13.00;99.90;;;13.73;94.34;97829.69;5247993;28;20270;-54
2021/08/03 02:53:50;;;;;;;4.13;3.63;;;13.00;99.90;;;13.76;92.73;97831.47;5248294;28;20212;-54
2021/08/03 02:56:24;;;;;;;3.35;3.15;;;13.00;99.90;;;13.77;93.82;97830.69;5247695;28;20196;-54
2021/08/03 02:59:02;;;;;;;3.83;2.97;;;13.00;99.90;;;13.79;93.90;97831.59;5248486;28;20206;-53
2021/08/03 03:01:41;;;;;;;3.47;3.20;;;13.00;99.90;;;13.77;93.85;97829.81;5240618;28;20228;-58
2021/08/03 03:04:21;;;;;;;4.18;2.92;;;13.00;99.90;;;13.79;94.21;97826.47;5248240;28;20287;-54
2021/08/03 03:06:59;;;;;;;4.05;3.13;;;13.00;99.90;;;13.69;92.65;97822.63;5248597;28;20204;-57
2021/08/03 03:09:36;;;;;;;3.25;2.92;;;13.00;99.90;;;13.74;93.20;97822.84;5248160;28;20661;-52
2021/08/03 03:12:11;;;;;;;2.92;2.72;;;12.90;99.90;;;13.68;93.62;97817.44;5248079;28;20694;-53
2021/08/03 03:14:47;;;;;;;3.67;2.60;;;12.90;99.90;;;13.68;92.92;97820.00;5248603;28;20283;-56
2021/08/03 03:17:24;;;;;;;3.00;2.80;;;12.90;99.90;;;13.62;93.31;97812.00;5248661;28;20207;-54
2021/08/03 03:19:59;;;;;;;2.63;2.53;;;12.90;99.90;;;13.62;93.19;97812.91;5248441;28;20699;-54
2021/08/03 03:22:39;;;;;;;3.17;2.92;;;12.90;99.90;;;13.62;93.20;97806.88;5248189;28;20192;-56
2021/08/03 03:25:17;;;;;;;2.83;2.63;;;12.80;99.90;;;13.58;92.39;97805.00;5247672;28;20726;-53
2021/08/03 03:27:55;;;;;;;2.95;2.75;;;12.80;99.90;;;13.52;93.42;97806.47;5247676;28;20207;-54
2021/08/03 03:30:29;;;;;;;3.00;2.70;;;12.80;99.90;;;13.43;92.85;97808.63;5247614;28;20223;-56
2021/08/03 03:33:06;;;;;;;3.33;2.90;;;12.70;99.90;;;13.42;93.73;97799.19;5247453;28;20198;-58
2021/08/03 03:35:41;;;;;;;2.80;2.60;;;12.70;99.90;;;13.42;93.41;97812.03;5248230;28;20279;-53
2021/08/03 03:38:17;;;;;;;2.95;2.72;;;12.60;99.90;;;13.35;92.51;97809.97;5247805;28;20279;-52
2021/08/03 03:40:51;;;;;;;3.28;2.92;;;12.60;99.90;;;13.36;93.21;97809.16;5247511;28;20223;-52
2021/08/03 03:43:29;;;;;;;3.30;3.10;;;12.60;99.90;;;13.39;93.19;97808.41;5247649;28;20188;-52
2021/08/03 03:46:06;;;;;;;3.33;3.03;;;12.60;99.90;;;13.28;93.81;97815.66;5247210;28;20224;-53
2021/08/03 03:48:50;;;;;;;4.80;2.90;;;12.50;99.90;;;13.30;93.82;97806.31;5248638;28;20611;-58
2021/08/03 03:51:29;;;;;;;4.05;3.15;;;12.50;99.90;;;13.33;93.99;97805.56;5247229;28;20311;-52
2021/08/03 03:54:09;;;;;;;2.80;2.58;;;12.60;99.90;;;13.30;92.73;97808.88;5247298;28;20656;-56
2021/08/03 03:56:50;;;;;;;2.78;2.55;;;12.50;99.90;;;13.25;93.27;97805.22;5246806;28;20286;-54
2021/08/03 03:59:23;;;;;;;2.95;2.75;;;12.50;99.90;;;13.28;93.05;97807.94;5247044;28;20660;-56
2021/08/03 04:01:59;;;;;;;3.28;3.00;;;12.50;99.90;;;13.30;93.77;97814.00;5246503;28;20230;-57
2021/08/03 04:04:36;;;;;;;3.40;3.05;;;12.60;99.90;;;13.32;93.88;97801.25;5247600;28;20283;-54
2021/08/03 04:07:09;;;;;;;3.53;3.28;;;12.60;99.90;;;13.34;92.51;97805.66;5247112;28;20230;-53
2021/08/03 04:09:42;;;;;;;3.22;2.92;;;12.60;99.90;;;13.37;92.65;97810.94;5247046;28;20670;-52
2021/08/03 04:12:16;;;;;;;3.30;3.00;;;12.60;99.90;;;13.39;93.48;97811.88;5246267;28;20203;-52
2021/08/03 04:14:49;;;;;;;2.88;2.67;;;12.60;99.90;;;13.45;92.72;97798.44;5246943;28;20409;-58
2021/08/03 04:17:22;;;;;;;3.30;3.00;;;12.70;99.90;;;13.49;92.81;97810.59;5246919;28;20422;-53
2021/08/03 04:19:56;;;;;;;3.33;3.10;;;12.70;99.90;;;13.54;92.88;97805.69;5247089;28;20212;-56
2021/08/03 04:22:29;;;;;;;3.20;3.00;;;12.70;99.90;;;13.51;93.10;97803.84;5247005;28;20192;-54
2021/08/03 04:25:02;;;;;;;3.22;2.92;;;12.70;99.90;;;13.49;92.44;97800.31;5246846;28;20201;-52
2021/08/03 04:27:36;;;;;;;3.22;3.03;;;12.70;99.90;;;13.54;93.31;97795.41;5246512;28;20203;-56
2021/08/03 04:30:12;;;;;;;2.67;2.47;;;12.80;99.90;;;13.57;92.56;97804.13;5247012;28;20235;-53
2021/08/03 04:32:45;;;;;;;3.00;2.80;;;12.80;99.90;;;13.59;90.36;97801.59;5246778;28;20200;-54
2021/08/03 04:35:19;;;;;;;3.42;2.90;;;12.70;99.90;;;13.56;92.25;97806.59;5246186;28;20203;-57
2021/08/03 04:37:53;;;;;;;5.32;2.97;;;12.70;99.90;;;13.54;91.82;97803.09;5245922;28;20204;-54
2021/08/03 04:40:26;;;;;;;3.88;2.70;;;12.70;99.90;;;13.61;92.81;97800.84;5246343;28;20223;-54
2021/08/03 04:42:59;;;;;;;2.83;2.63;;;12.80;99.90;;;13.68;92.33;97796.91;5246732;28;20197;-57
2021/08/03 04:45:32;;;;;;;3.40;3.13;;;12.90;99.90;;;13.70;91.67;97798.69;5246420;28;20458;-53
2021/08/03 04:48:06;;;;;;;3.00;2.70;;;12.90;99.90;;;13.73;90.74;97803.09;5246120;28;20224;-54
2021/08/03 04:50:40;;;;;;;3.22;3.03;;;12.90;99.90;;;13.72;91.40;97797.06;5243602;28;20303;-55
2021/08/03 04:53:13;;;;;;;3.25;3.05;;;12.90;99.90;;;13.74;90.92;97797.16;5244182;28;20584;-61
2021/08/03 04:55:46;;;;;;;3.33;3.03;;;12.90;99.90;;;13.81;90.79;97794.03;5245154;28;20291;-57
2021/08/03 04:58:19;;;;;;;3.58;3.28;;;13.00;99.90;;;13.86;91.04;97787.41;5245931;28;20206;-56
2021/08/03 05:00:53;;;;;;;3.50;3.20;;;13.10;99.90;;;13.95;91.42;97786.91;5246474;28;20289;-53
2021/08/03 05:03:27;;;;;;;3.13;2.83;;;13.20;99.90;;;14.04;91.61;97782.16;5245624;28;20193;-56
2021/08/03 05:06:01;;;;;;;3.53;3.25;;;13.20;99.90;;;14.10;92.30;97779.84;5245434;28;20298;-55
2021/08/03 05:08:34;;;;;;;2.90;2.70;;;13.30;99.90;;;14.13;90.73;97773.94;5245811;28;20194;-54
2021/08/03 05:11:07;;;;;;;4.50;3.13;;;13.30;99.90;;;14.11;90.68;97778.19;5244940;28;20220;-56
2021/08/03 05:13:40;;;;;;;3.63;3.30;;;13.30;99.90;;;14.10;90.32;97773.81;5245294;28;20567;-51
2021/08/03 05:16:13;;;;;;;3.70;3.38;;;13.30;99.90;;;14.13;91.23;97776.53;5245724;28;20201;-58
2021/08/03 05:18:46;;;;;;;4.88;3.60;;;13.30;99.90;;;14.13;91.17;97779.09;5245267;28;20200;-56
2021/08/03 05:21:21;;;;;;;3.85;3.50;;;13.30;99.90;;;14.23;91.40;97777.81;5246130;28;20578;-57
2021/08/03 05:23:54;;;;;;;3.38;3.17;;;13.40;99.90;;;14.31;90.96;97769.59;5238083;28;20202;-55
2021/08/03 05:26:27;;;;;;;3.78;3.38;;;13.50;99.90;;;14.49;90.02;97766.88;5245253;28;20220;-56
2021/08/03 05:29:00;;;;;;;4.10;3.28;;;13.60;99.90;;;14.58;89.46;97766.41;5238251;28;20656;-56
2021/08/03 05:31:33;;;;;;;3.30;3.10;;;13.60;99.90;;;14.70;89.24;97768.56;5244938;28;20216;-54
2021/08/03 05:34:06;;;;;;;3.22;3.03;;;13.80;99.90;;;14.84;89.15;97768.28;5241289;28;20197;-56
2021/08/03 05:36:41;;;;;;;3.50;3.20;;;13.90;99.90;;;14.95;87.91;97762.69;5245583;28;20199;-56
2021/08/03 05:39:14;;;;;;;3.17;2.97;;;14.00;99.90;;;15.14;87.53;97769.38;5243707;28;20291;-54
2021/08/03 05:41:47;;;;;;;3.55;3.35;;;14.10;99.90;;;15.41;86.49;97774.69;5244769;28;20278;-55
2021/08/03 05:44:20;;;;;;;3.90;3.30;;;14.40;99.90;;;15.75;85.14;97762.25;5245363;28;20201;-53
2021/08/03 05:46:54;;;;;;;3.25;2.97;;;14.70;99.90;;;16.06;83.54;97763.31;5240047;28;20630;-57
2021/08/03 05:49:27;;;;;;;5.82;3.50;;;15.00;99.90;;;16.14;81.58;97771.31;5245701;28;20192;-57
2021/08/03 05:52:02;;;;;;;3.50;3.00;;;15.00;99.90;;;16.12;81.21;97768.66;5242444;28;20192;-54
2021/08/03 05:54:35;;;;;;;4.22;3.05;;;15.00;99.90;;;16.02;81.47;97768.28;5245552;28;20199;-56
2021/08/03 05:57:09;;;;;;;3.22;3.03;;;14.90;99.90;;;15.96;82.05;97768.97;5245510;28;20574;-55
2021/08/03 05:59:42;;;;;;;3.75;2.97;;;14.90;99.90;;;15.86;82.79;97769.47;5245270;28;20210;-53
2021/08/03 06:02:15;;;;;;;3.65;2.80;;;14.80;99.90;;;15.84;83.85;97765.97;5245427;28;20197;-56
2021/08/03 06:04:48;;;;;;;4.18;3.33;;;14.90;99.90;;;15.83;84.54;97761.66;5245751;28;20195;-55
2021/08/03 06:07:26;;;;;;;3.53;3.22;;;14.80;99.90;;;15.91;83.85;97762.75;5245692;28;20308;-55
2021/08/03 06:10:00;;;;;;;3.97;3.20;;;14.80;99.90;;;15.79;84.77;97768.38;5249935;28;20252;-57
2021/08/03 06:12:35;;;;;;;3.63;3.30;;;14.80;99.90;;;15.71;84.19;97775.84;5249771;28;20664;-53
2021/08/03 06:15:09;;;;;;;3.13;2.92;;;14.80;99.90;;;15.75;84.45;97767.41;5249047;28;20200;-54
2021/08/03 06:17:47;;;;;;;3.72;3.30;;;14.80;99.90;;;15.70;83.10;97768.91;5249670;28;20202;-55
2021/08/03 06:20:20;;;;;;;4.50;3.35;;;14.80;99.90;;;15.76;83.40;97766.56;5249649;28;20710;-56
2021/08/03 06:22:55;;;;;;;3.42;3.22;;;14.80;99.90;;;15.84;83.27;97756.53;5250034;28;20667;-55
2021/08/03 06:25:29;;;;;;;3.50;3.30;;;14.90;99.90;;;16.12;83.46;97763.50;5248724;28;20192;-52
2021/08/03 06:28:02;;;;;;;3.40;3.10;;;15.10;99.90;;;16.51;82.35;97763.06;5249209;28;20238;-55
2021/08/03 06:30:38;;;;;;;3.63;2.88;;;15.40;99.90;;;16.83;80.75;97765.81;5239213;28;20223;-53
2021/08/03 06:33:11;;;;;;;4.18;3.80;;;15.60;99.90;;;16.84;80.95;97767.56;5246803;28;20200;-56
2021/08/03 06:35:45;;;;;;;3.88;3.10;;;15.70;99.90;;;16.89;80.12;97759.13;5247004;28;20204;-55
2021/08/03 06:38:19;;;;;;;3.72;3.45;;;15.70;99.90;;;16.84;81.06;97757.25;5246531;28;20201;-56
2021/08/03 06:41:01;;;;;;;3.50;3.08;;;15.80;99.90;;;16.87;80.65;97757.34;5249359;28;20218;-57
2021/08/03 06:43:36;;;;;;;4.22;3.00;;;15.80;99.90;;;17.18;79.43;97763.44;5246894;28;20571;-53
2021/08/03 06:46:12;;;;;;;3.25;2.95;;;16.00;99.90;;;17.77;78.04;97761.66;5247970;28;20207;-57
2021/08/03 06:48:52;;;;;;;3.00;2.80;;;16.50;99.90;;;18.03;76.40;97767.56;5248328;28;20192;-54
2021/08/03 06:51:28;;;;;;;3.28;3.03;;;16.70;99.90;;;18.13;75.63;97756.59;5247443;28;20224;-54
2021/08/03 06:54:06;;;;;;;3.15;2.85;;;16.80;99.90;;;18.21;75.42;97768.03;5249129;28;20671;-54
2021/08/03 06:56:46;;;;;;;2.92;2.70;;;16.80;99.90;;;18.29;75.12;97763.06;5247461;28;20192;-55
2021/08/03 06:59:24;;;;;;;2.47;2.35;;;16.90;99.90;;;18.38;74.87;97760.69;5246210;28;20196;-58
2021/08/03 07:02:06;;;;;;;2.92;2.58;;;17.00;99.90;;;18.44;74.19;97768.59;5247631;28;20204;-55
2021/08/03 07:04:48;;;;;;;2.90;2.70;;;17.00;99.90;;;18.68;73.78;97768.31;5247730;28;20192;-55
2021/08/03 07:07:22;;;;;;;2.60;2.40;;;17.20;99.90;;;18.79;73.34;97770.31;5248008;28;20213;-55
2021/08/03 07:09:59;;;;;;;2.95;2.47;;;17.30;99.90;;;18.78;72.69;97768.56;5247607;28;20661;-58
2021/08/03 07:12:32;;;;;;;2.83;2.50;;;17.30;99.90;;;18.85;72.63;97766.13;5244771;28;20203;-56
2021/08/03 07:15:07;;;;;;;2.47;2.20;;;17.50;99.90;;;19.30;70.52;97760.22;5248120;28;20648;-52
2021/08/03 07:17:42;;;;;;;2.55;2.35;;;17.90;99.90;;;19.91;68.45;97764.91;5247176;28;20196;-56
2021/08/03 07:20:16;;;;;;;3.65;2.47;;;18.50;99.90;;;20.35;67.47;97764.84;5245892;28;20694;-57
2021/08/03 07:22:50;;;;;;;3.63;2.47;;;19.10;99.90;;;20.90;65.51;97763.13;5245944;28;20207;-54
2021/08/03 07:25:24;;;;;;;2.97;2.28;;;19.40;99.90;;;21.13;63.96;97759.13;5239276;28;20200;-58
2021/08/03 07:27:57;;;;;;;2.33;2.03;;;19.50;99.90;;;21.26;63.39;97761.88;5245349;28;20230;-57
2021/08/03 07:30:30;;;;;;;2.50;2.30;;;19.60;99.90;;;21.27;63.53;97761.91;5246735;28;20572;-54
2021/08/03 07:33:04;;;;;;;2.60;2.40;;;19.40;99.90;;;21.19;63.71;97757.47;5243641;28;20200;-56
2021/08/03 07:35:40;;;;;;;3.45;2.55;;;19.30;99.90;;;20.79;64.51;97762.97;5242455;28;20208;-57
2021/08/03 07:38:14;;;;;;;2.80;2.60;;;19.20;99.90;;;20.61;65.18;97760.97;5245433;28;20196;-54
2021/08/03 07:40:48;;;;;;;2.30;2.17;;;18.90;99.90;;;20.39;65.83;97766.63;5246758;28;20220;-58
2021/08/03 07:43:21;;;;;;;3.85;2.55;;;18.70;99.90;;;20.22;66.24;97771.53;5245579;28;20192;-53
2021/08/03 07:45:54;;;;;;;2.67;2.30;;;18.60;99.90;;;20.18;66.71;97770.59;5244366;28;20200;-55
2021/08/03 07:48:27;;;;;;;2.40;2.17;;;18.50;99.90;;;20.08;67.44;97763.50;5243236;28;20220;-55
2021/08/03 07:51:00;;;;;;;2.28;2.17;;;18.50;99.90;;;20.28;67.58;97761.25;5238206;28;20223;-57
2021/08/03 07:53:33;;;;;;;3.42;2.10;;;18.70;99.90;;;21.17;66.41;97761.78;5243992;28;20315;-57
2021/08/03 07:56:08;;;;;;;3.20;2.40;;;19.40;99.90;;;21.94;62.46;97759.25;5243605;28;20204;-56
2021/08/03 07:58:41;;;;;;;2.13;2.03;;;19.90;99.90;;;21.96;61.88;97757.56;5241529;28;20195;-55
2021/08/03 08:01:17;;;;;;;2.20;2.00;;;20.00;99.90;;;21.96;61.60;97761.91;5241499;28;20224;-58
2021/08/03 08:03:51;;;;;;;2.45;2.22;;;20.00;99.90;;;21.69;62.44;97759.84;5243515;28;20260;-58
2021/08/03 08:06:24;;;;;;;2.20;2.00;;;20.00;99.90;;;21.48;62.82;97763.06;5242708;28;20204;-59
2021/08/03 08:08:57;;;;;;;2.25;2.00;;;19.90;99.90;;;21.29;62.68;97761.91;5243669;28;20292;-60
2021/08/03 08:11:31;;;;;;;2.95;2.10;;;19.80;99.90;;;21.20;62.40;97767.00;5237450;28;20600;-59
2021/08/03 08:14:05;;;;;;;1.73;1.63;;;19.70;99.90;;;20.93;63.24;97773.56;5239407;28;20234;-59
2021/08/03 08:16:38;;;;;;;2.33;2.20;;;19.50;99.90;;;21.05;63.13;97773.75;5241627;28;20730;-58
2021/08/03 08:19:11;;;;;;;2.22;2.13;;;19.60;99.90;;;21.07;63.95;97773.78;5244301;28;20725;-59
2021/08/03 08:21:44;;;;;;;2.33;2.13;;;19.70;99.90;;;21.14;64.05;97778.19;5242478;28;20216;-59
2021/08/03 08:24:17;;;;;;;2.30;2.20;;;19.80;99.90;;;21.35;62.86;97772.44;5244267;28;20200;-59
2021/08/03 08:26:52;;;;;;;3.47;2.10;;;20.00;99.90;;;21.54;62.18;97761.41;5237648;28;20205;-59
2021/08/03 08:29:25;;;;;;;2.20;2.10;;;20.00;99.90;;;21.57;61.61;97761.44;5242295;28;20696;-58
2021/08/03 08:31:59;;;;;;;2.55;1.90;;;20.20;99.90;;;21.61;59.22;97758.91;5242567;28;20197;-59
2021/08/03 08:34:32;;;;;;;2.63;2.35;;;20.20;99.90;;;21.45;60.29;97756.09;5244698;28;20196;-59
2021/08/03 08:37:05;;;;;;;2.20;2.00;;;20.10;99.90;;;21.53;61.61;97754.47;5241414;28;20230;-58
2021/08/03 08:39:38;;;;;;;2.20;2.10;;;20.20;99.90;;;21.64;60.28;97753.75;5243377;28;20254;-56
2021/08/03 08:42:13;;;;;;;3.00;2.17;;;20.20;99.90;;;21.74;59.94;97751.25;5243894;28;20201;-58
2021/08/03 08:44:49;;;;;;;2.05;1.95;;;20.40;99.90;;;21.67;59.43;97749.44;5244688;28;20210;-58
2021/08/03 08:47:22;;;;;;;2.58;1.90;;;20.30;99.90;;;21.67;58.94;97745.97;5242699;28;20196;-58
2021/08/03 08:50:02;;;;;;;2.88;2.25;;;20.30;99.90;;;21.79;59.07;97751.31;5246688;28;20691;-58
2021/08/03 08:52:35;;;;;;;2.30;2.10;;;20.40;99.90;;;21.89;59.36;97745.34;5246001;28;20192;-58
2021/08/03 08:55:11;;;;;;;2.13;2.00;;;20.50;99.90;;;21.89;59.80;97747.94;5239119;28;20209;-59
2021/08/03 08:57:47;;;;;;;2.40;2.20;;;20.50;99.90;;;21.94;60.00;97741.03;5240021;28;20196;-58
2021/08/03 09:00:22;;;;;;;2.42;1.92;;;20.60;99.90;;;21.94;60.11;97748.84;5239249;28;20626;-59
2021/08/03 09:02:56;;;;;;;3.15;1.85;;;20.60;99.90;;;21.91;59.74;97743.63;5239874;28;20203;-58
2021/08/03 09:05:33;;;;;;;2.38;2.10;;;20.60;99.90;;;21.93;59.62;97741.91;5240023;28;20202;-57
2021/08/03 09:08:08;;;;;;;2.95;2.00;;;20.70;99.90;;;22.00;59.78;97746.31;5242087;28;20216;-59
2021/08/03 09:10:44;;;;;;;2.13;2.03;;;20.70;99.90;;;21.89;58.97;97739.25;5241690;28;20231;-58
2021/08/03 09:13:22;;;;;;;1.90;1.80;;;20.50;99.90;;;21.98;59.29;97745.44;5236708;28;20200;-59
2021/08/03 09:15:59;;;;;;;2.22;2.00;;;20.60;99.90;;;22.13;57.16;97746.44;5241512;28;20196;-58
2021/08/03 09:18:36;;;;;;;2.20;2.00;;;20.60;99.90;;;22.15;57.49;97749.91;5243289;28;20227;-58
2021/08/03 09:21:19;;;;;;;1.90;1.80;;;20.60;99.90;;;22.11;57.13;97756.84;5241554;28;20575;-59
2021/08/03 09:23:54;;;;;;;2.15;2.05;;;20.60;99.90;;;22.15;57.16;97752.53;5241956;28;22261;-58
2021/08/03 09:26:46;;;;;;;3.30;2.00;;;20.70;99.90;;;22.01;58.25;97753.28;5238417;28;20202;-59
2021/08/03 09:29:20;;;;;;;1.80;1.70;;;20.70;99.90;;;22.12;58.56;97752.50;5236936;28;20315;-58
2021/08/03 09:31:55;;;;;;;2.30;1.90;;;20.70;99.90;;;22.17;57.72;97750.81;5242836;28;20220;-58
2021/08/03 09:34:28;;;;;;;2.40;1.90;;;20.70;99.90;;;22.10;57.04;97747.28;5244638;28;20728;-59
2021/08/03 09:37:01;;;;;;;2.10;2.00;;;20.70;99.90;;;22.21;56.77;97744.81;5243724;28;20232;-59
2021/08/03 09:39:41;;;;;;;2.90;2.13;;;20.80;99.90;;;22.39;57.17;97749.31;5244241;28;20672;-59
2021/08/03 09:42:16;;;;;;;3.00;2.05;;;20.90;99.90;;;22.41;56.71;97742.41;5244287;28;20202;-59
2021/08/03 09:44:54;;;;;;;3.00;1.92;;;21.00;99.90;;;22.53;56.32;97749.44;5247877;28;20577;-59
2021/08/03 09:47:34;;;;;;;2.08;1.98;;;21.10;99.90;;;22.65;55.28;97754.72;5239552;28;20297;-58
2021/08/03 09:50:09;;;;;;;2.00;1.90;;;21.10;99.90;;;22.69;54.54;97751.28;5241444;28;20222;-58
2021/08/03 09:52:47;;;;;;;2.00;1.80;;;21.20;99.90;;;22.82;54.12;97760.06;5246080;28;20293;-62
2021/08/03 09:55:22;;;;;;;2.17;2.08;;;21.30;99.90;;;23.03;54.98;97746.31;5244653;28;20311;-62
2021/08/03 09:58:08;;;;;;;2.22;1.80;;;21.40;99.90;;;23.03;53.77;97746.31;5246326;28;20238;-61
2021/08/03 10:00:45;;;;;;;3.33;1.70;;;21.50;99.90;;;23.13;53.32;97751.59;5239261;28;20228;-60
2021/08/03 10:03:18;;;;;;;1.90;1.80;;;21.50;99.90;;;23.14;53.34;97748.13;5245533;28;20220;-59
2021/08/03 10:05:52;;;;;;;1.75;1.60;;;21.60;99.90;;;23.10;53.45;97745.50;5247177;28;20911;-59
2021/08/03 10:08:26;;;;;;;1.90;1.80;;;21.60;99.90;;;22.99;54.34;97739.34;5238684;28;20220;-59
2021/08/03 10:10:59;;;;;;;1.90;1.80;;;21.40;99.90;;;22.92;54.62;97754.94;5243726;28;20242;-60
2021/08/03 10:13:32;;;;;;;2.08;1.98;;;21.30;99.90;;;22.70;56.90;97753.03;5244834;28;20196;-59
2021/08/03 10:16:07;;;;;;;2.10;1.63;;;21.10;99.90;;;22.43;60.92;97754.56;5240139;28;20207;-60
2021/08/03 10:18:41;;;;;;;2.25;1.80;;;21.00;99.90;;;22.23;63.22;97766.53;5241073;28;20945;-60
2021/08/03 10:21:29;;;;;;;2.42;1.92;;;20.90;99.90;;;21.84;65.14;97761.78;5245069;28;20221;-60
2021/08/03 10:24:13;;;;;;;2.03;1.92;;;20.70;99.90;;;21.64;66.18;97774.56;5243225;28;20204;-60
2021/08/03 10:27:09;;;;;;;2.95;2.30;;;20.50;99.90;;;21.35;68.52;97785.44;5241189;28;20207;-59
2021/08/03 10:29:49;;;;;;;2.42;2.22;;;20.40;99.90;;;21.09;68.73;97795.47;5242042;28;20209;-59
2021/08/03 10:32:42;;;;;;;2.40;2.20;;;20.20;99.90;;;20.79;67.06;97807.13;5242589;28;20661;-59
2021/08/03 10:35:16;;;;;;;1.90;1.80;;;19.70;99.90;;;20.35;68.15;97817.63;5244513;28;20207;-60
2021/08/03 10:38:12;;;;;;;1.85;1.75;;;19.30;99.90;;;19.56;71.13;97814.34;5244263;28;20743;-60
2021/08/03 10:41:07;;;;;;;1.52;1.50;;;18.90;99.90;;;19.35;70.97;97819.94;5243145;28;21706;-60
2021/08/03 10:43:49;;;;;;;1.58;1.48;;;18.60;99.90;;;19.04;71.92;97824.44;5238375;28;20583;-59
2021/08/03 10:46:41;;;;;;;1.60;1.50;;;18.30;99.90;;;18.97;72.40;97821.66;5242256;28;20219;-59
2021/08/03 10:49:54;;;;;;;1.35;1.35;;;18.20;99.90;;;18.96;72.90;97820.78;5241719;28;20697;-58
2021/08/03 10:52:57;;;;;;;1.48;1.48;;;18.10;99.90;;;18.99;76.76;97814.81;5246631;28;20192;-59
2021/08/03 10:55:41;;;;;;;1.60;1.50;;;18.00;99.90;;;18.97;75.25;97809.59;5243586;28;20212;-58
2021/08/03 10:58:26;;;;;;;1.25;1.15;;;18.20;99.90;;;18.93;76.63;97809.47;5244162;28;20602;-58